KSYI/SYI METAR and TAF weather

Enter ICAO airport designator
Station Type Date Time Source
KSYI METAR 2019/10/23 02:15 UTC NOAA

KSYI 230215Z AUTO 26005KT 10SM CLR 11/04 A3009 RMK A01


Station Type Date Time Source
KSYI Decoded METAR 2019/10/23 02:15 UTC NOAA

Station name not available
Oct 22, 2019 - 10:15 PM EDT / 2019.10.23 0215 UTC
Wind: from the W (260 degrees) at 6 MPH (5 KT):0
Visibility: 10 mile(s):0
Sky conditions: clear
Temperature: 51 F (11 C)
Dew Point: 39 F (4 C)
Relative Humidity: 61%
Pressure (altimeter): 30.09 in. Hg (1018 hPa)
ob: KSYI 230215Z AUTO 26005KT 10SM CLR 11/04 A3009 RMK A01
cycle: 2

Station Type Date Time Source
KSYI TAF UTC NOAA

Error!

Example: see airport list